createdAt,value
2022-10-18T00:00:23.117Z,102531.72
2022-10-18T00:05:46.269Z,102537.88
2022-10-18T00:11:10.747Z,102530.84
2022-10-18T00:16:33.854Z,102533.50
2022-10-18T00:21:56.938Z,102536.22
2022-10-18T00:27:21.434Z,102545.91
2022-10-18T00:32:44.482Z,102534.56
2022-10-18T00:38:07.583Z,102530.28
2022-10-18T00:43:32.105Z,102532.91
2022-10-18T00:48:56.994Z,102537.28
2022-10-18T00:54:20.541Z,102542.59
2022-10-18T00:59:45.466Z,102535.69
2022-10-18T01:05:11.159Z,102538.41
2022-10-18T01:10:41.275Z,102546.28
2022-10-18T01:16:12.642Z,102546.38
2022-10-18T01:21:41.543Z,102555.19
2022-10-18T01:27:22.555Z,102553.41
2022-10-18T01:32:49.629Z,102547.31
2022-10-18T01:38:17.106Z,102535.13
2022-10-18T01:43:41.637Z,102542.16
2022-10-18T01:49:06.611Z,102557.03
2022-10-18T01:54:33.566Z,102551.00
2022-10-18T02:00:00.906Z,102561.53
2022-10-18T02:05:29.988Z,102561.53
2022-10-18T02:10:58.056Z,102558.06
2022-10-18T02:16:24.692Z,102551.97
2022-10-18T02:21:49.554Z,102552.91
2022-10-18T02:27:12.788Z,102560.84
2022-10-18T02:32:40.005Z,102568.75
2022-10-18T02:38:05.714Z,102562.66
2022-10-18T02:43:28.755Z,102563.59
2022-10-18T02:48:51.912Z,102560.22
2022-10-18T02:54:16.336Z,102562.09
2022-10-18T02:59:39.413Z,102566.56
2022-10-18T03:05:02.458Z,102585.88
2022-10-18T03:10:26.994Z,102585.03
2022-10-18T03:15:50.165Z,102576.34
2022-10-18T03:21:13.459Z,102574.63
2022-10-18T03:26:37.999Z,102572.00
2022-10-18T03:32:01.126Z,102580.75
2022-10-18T03:37:24.199Z,102578.16
2022-10-18T03:42:48.818Z,102572.06
2022-10-18T03:48:12.000Z,102572.94
2022-10-18T03:53:35.152Z,102579.06
2022-10-18T03:58:59.564Z,102577.38
2022-10-18T04:04:22.850Z,102585.25
2022-10-18T04:09:45.969Z,102573.06
2022-10-18T04:15:11.740Z,102578.34
2022-10-18T04:20:34.840Z,102581.84
2022-10-18T04:25:57.899Z,102600.19
2022-10-18T04:31:22.349Z,102587.09
2022-10-18T04:36:45.394Z,102605.50
2022-10-18T04:42:08.579Z,102601.13
2022-10-18T04:47:33.624Z,102611.66
2022-10-18T04:52:57.230Z,102602.91
2022-10-18T04:58:20.554Z,102603.81
2022-10-18T05:03:45.049Z,102616.06
2022-10-18T05:09:08.246Z,102607.34
2022-10-18T05:14:31.363Z,102619.59
2022-10-18T05:19:55.824Z,102635.31
2022-10-18T05:25:19.037Z,102623.97
2022-10-18T05:30:42.885Z,102630.97
2022-10-18T05:36:08.199Z,102639.69
2022-10-18T05:41:31.276Z,102639.69
2022-10-18T05:46:55.251Z,102654.56
2022-10-18T05:52:20.112Z,102651.94
2022-10-18T05:57:43.277Z,102664.13
2022-10-18T06:03:06.318Z,102666.75
2022-10-18T06:08:30.888Z,102666.72
2022-10-18T06:13:53.953Z,102671.94
2022-10-18T06:19:17.156Z,102678.03
2022-10-18T06:24:41.652Z,102683.25
2022-10-18T06:30:05.144Z,102675.31
2022-10-18T06:35:28.206Z,102683.16
2022-10-18T06:40:52.652Z,102690.97
2022-10-18T06:46:15.781Z,102693.63
2022-10-18T06:51:39.209Z,102686.69
2022-10-18T06:57:04.006Z,102704.22
2022-10-18T07:02:27.106Z,102698.13
2022-10-18T07:07:54.181Z,102712.03
2022-10-18T07:13:32.039Z,102716.44
2022-10-18T07:18:56.175Z,102724.31
2022-10-18T07:24:19.381Z,102729.56
2022-10-18T07:29:43.914Z,102717.38
2022-10-18T07:35:07.844Z,102744.41
2022-10-18T07:40:30.960Z,102741.84
2022-10-18T07:45:56.495Z,102751.44
2022-10-18T07:51:20.125Z,102741.81
2022-10-18T07:56:43.782Z,102749.69
2022-10-18T08:02:08.340Z,102758.41
2022-10-18T08:07:33.240Z,102761.06
2022-10-18T08:12:56.448Z,102754.06
2022-10-18T08:18:21.095Z,102776.78
2022-10-18T08:23:44.511Z,102757.56
2022-10-18T08:29:21.860Z,102777.66
2022-10-18T08:34:48.478Z,102786.34
2022-10-18T08:40:14.185Z,102800.31
2022-10-18T08:45:42.927Z,102797.66
2022-10-18T08:51:14.414Z,102791.44
2022-10-18T08:56:37.866Z,102795.72
2022-10-18T09:02:06.812Z,102803.50
2022-10-18T09:07:47.618Z,102806.13
2022-10-18T09:13:43.619Z,102812.19
2022-10-18T09:19:12.576Z,102819.09
2022-10-18T09:24:40.748Z,102818.97
2022-10-18T09:30:09.180Z,102824.13
2022-10-18T09:35:38.972Z,102822.31
2022-10-18T09:41:10.054Z,102828.38
2022-10-18T09:46:35.351Z,102822.22
2022-10-18T09:52:00.258Z,102815.91
2022-10-18T09:57:28.350Z,102816.50
2022-10-18T10:02:51.605Z,102813.53
2022-10-18T10:08:14.854Z,102823.13
2022-10-18T10:13:39.328Z,102840.69
2022-10-18T10:19:02.685Z,102829.19
2022-10-18T10:24:31.144Z,102819.41
2022-10-18T10:30:01.415Z,102837.75
2022-10-18T10:41:23.603Z,102856.41
2022-10-18T10:46:49.811Z,102858.00
2022-10-18T10:52:27.719Z,102842.97
2022-10-18T10:57:53.713Z,102851.44
2022-10-18T11:03:34.996Z,102850.44
2022-10-18T11:08:58.726Z,102855.81
2022-10-18T11:14:26.865Z,102867.06
2022-10-18T11:20:05.339Z,102873.13
2022-10-18T11:25:39.588Z,102862.72
2022-10-18T11:31:13.946Z,102874.88
2022-10-18T11:36:50.391Z,102872.03
2022-10-18T11:42:30.710Z,102877.28
2022-10-18T11:48:01.051Z,102868.25
2022-10-18T11:53:31.237Z,102876.84
2022-10-18T11:59:05.055Z,102875.81
2022-10-18T12:04:33.306Z,102864.53
2022-10-18T12:09:58.305Z,102864.69
2022-10-18T12:15:23.488Z,102861.50
2022-10-18T12:20:48.584Z,102867.13
2022-10-18T12:26:14.529Z,102861.69
2022-10-18T12:31:41.296Z,102853.78
2022-10-18T12:37:42.706Z,102855.44
2022-10-18T12:43:12.376Z,102849.81
2022-10-18T12:48:39.161Z,102854.91
2022-10-18T12:54:12.979Z,102849.63
2022-10-18T12:59:48.151Z,102863.81
2022-10-18T13:05:56.323Z,102847.88
2022-10-18T13:11:36.343Z,102854.13
2022-10-18T13:17:08.100Z,102849.69
2022-10-18T13:22:50.249Z,102854.22
2022-10-18T13:28:22.008Z,102856.72
2022-10-18T13:33:46.609Z,102853.53
2022-10-18T13:39:19.877Z,102848.28
2022-10-18T13:44:44.835Z,102847.50
2022-10-18T13:50:19.349Z,102855.91
2022-10-18T13:55:56.852Z,102863.16
2022-10-18T14:01:26.471Z,102843.38
2022-10-18T14:06:51.472Z,102850.16
2022-10-18T14:12:22.463Z,102857.41
2022-10-18T14:17:49.045Z,102854.81
2022-10-18T14:23:16.925Z,102857.03
2022-10-18T14:28:58.406Z,102860.00
2022-10-18T14:34:22.934Z,102871.63
2022-10-18T14:39:47.904Z,102859.19
2022-10-18T14:45:19.412Z,102846.84
2022-10-18T14:50:43.171Z,102856.47
2022-10-18T14:56:08.531Z,102861.94
2022-10-18T15:01:33.069Z,102865.59
2022-10-18T15:06:56.618Z,102858.44
2022-10-18T15:12:21.295Z,102875.88
2022-10-18T15:17:44.677Z,102873.16
2022-10-18T15:23:26.066Z,102869.19
2022-10-18T15:28:53.809Z,102863.09
2022-10-18T15:34:20.114Z,102885.31
2022-10-18T15:39:43.241Z,102876.84
2022-10-18T15:45:31.455Z,102887.59
2022-10-18T15:50:55.654Z,102873.72
2022-10-18T15:56:30.017Z,102866.84
2022-10-18T16:01:55.448Z,102866.09
2022-10-18T16:07:18.781Z,102875.88
2022-10-18T16:12:42.200Z,102885.66
2022-10-18T16:18:06.788Z,102889.28
2022-10-18T16:23:29.857Z,102897.28
2022-10-18T16:28:53.193Z,102902.66
2022-10-18T16:34:17.999Z,102907.13
2022-10-18T16:39:41.101Z,102906.31
2022-10-18T16:45:04.405Z,102910.78
2022-10-18T16:50:30.877Z,102910.00
2022-10-18T16:55:59.674Z,102917.09
2022-10-18T17:01:24.272Z,102931.16
2022-10-18T17:06:49.225Z,102939.09
2022-10-18T17:12:12.578Z,102947.84
2022-10-18T17:17:36.267Z,102949.59
2022-10-18T17:23:00.730Z,102958.38
2022-10-18T17:28:23.947Z,102946.19
2022-10-18T17:33:47.036Z,102951.44
2022-10-18T17:39:13.850Z,102960.22
2022-10-18T17:44:37.133Z,102962.00
2022-10-18T17:50:00.238Z,102967.28
2022-10-18T17:55:24.707Z,102971.69
2022-10-18T18:00:48.015Z,102972.56
2022-10-18T18:06:15.853Z,102970.81
2022-10-18T18:11:42.029Z,102973.44
2022-10-18T18:17:05.241Z,102978.72
2022-10-18T18:22:28.263Z,102978.72
2022-10-18T18:27:52.748Z,102987.47
2022-10-18T18:33:15.831Z,102980.44
2022-10-18T18:38:40.079Z,102980.47
2022-10-18T18:44:06.123Z,102984.81
2022-10-18T18:49:29.454Z,102963.75
2022-10-18T18:54:52.520Z,102985.59
2022-10-18T19:00:17.467Z,102987.31
2022-10-18T19:05:40.593Z,102991.66
2022-10-18T19:11:08.044Z,102999.53
2022-10-18T19:16:35.060Z,103003.03
2022-10-18T19:21:59.262Z,103003.84
2022-10-18T19:27:22.439Z,103005.59
2022-10-18T19:32:46.915Z,103002.06
2022-10-18T19:38:09.999Z,103003.78
2022-10-18T19:43:56.377Z,103009.84
2022-10-18T19:49:20.814Z,102997.59
2022-10-18T19:54:44.973Z,102998.38
2022-10-18T20:00:10.943Z,102997.47
2022-10-18T20:05:38.766Z,103000.09
2022-10-18T20:11:02.477Z,103006.13
2022-10-18T20:16:28.688Z,102995.66
2022-10-18T20:21:55.773Z,102998.25
2022-10-18T20:27:18.863Z,102992.09
2022-10-18T20:32:42.726Z,102999.91
2022-10-18T20:38:07.178Z,103002.50
2022-10-18T20:43:30.328Z,103010.31
2022-10-18T20:48:53.932Z,103015.47
2022-10-18T20:54:18.378Z,103018.09
2022-10-18T20:59:41.418Z,103011.06
2022-10-18T21:05:04.907Z,103012.78
2022-10-18T21:10:29.416Z,103004.00
2022-10-18T21:15:55.879Z,103010.03
2022-10-18T21:21:20.857Z,103015.22
2022-10-18T21:26:45.427Z,103002.97
2022-10-18T21:32:08.679Z,103007.28
2022-10-18T21:37:31.782Z,103006.31
2022-10-18T21:42:56.260Z,103004.53
2022-10-18T21:48:19.370Z,102999.25
2022-10-18T21:53:43.612Z,102987.84
2022-10-18T21:59:08.483Z,103005.25
2022-10-18T22:04:35.690Z,103000.75
2022-10-18T22:09:58.783Z,102995.53
2022-10-18T22:15:23.366Z,102991.16
2022-10-18T22:20:54.825Z,102984.09
2022-10-18T22:26:20.907Z,102986.78
2022-10-18T22:31:46.975Z,102985.88
2022-10-18T22:37:10.040Z,102978.88
2022-10-18T22:48:02.672Z,102974.41
2022-10-18T22:53:26.029Z,102969.03
2022-10-18T22:58:49.271Z,102975.97
2022-10-18T23:04:13.772Z,102968.16
2022-10-18T23:09:36.867Z,102958.56
2022-10-18T23:14:59.932Z,102961.97
2022-10-18T23:20:24.680Z,102968.97
2022-10-18T23:25:51.077Z,102979.41
2022-10-18T23:31:17.967Z,102977.72
2022-10-18T23:42:10.662Z,102979.84
2022-10-18T23:47:33.878Z,102972.09
2022-10-18T23:52:58.771Z,102974.78
2022-10-18T23:58:22.257Z,102964.34
